Norden-Norddeich Airport

EDWS · Nedersaksen, Duitsland

METAR historie EDWS · Norden-Norddeich Airport

Hieronder zie je METAR's van de afgelopen dagen. Kies een jaar om door oudere METAR's te bladeren, vanaf het jaar 2007.

5 december 2022

Tijd Code Weer Temp. Zicht Plafond Wind METAR/SPECI
12:20
I
5 °C 3,9 km 800 ft 030° 030° 11 kt METAR EDWE 051120Z 03011KT 3900 BR FEW005 BKN008 OVC010 05/04 Q1020
11:50
I
5 °C 5 km 600 ft 030° 030° 11 kt METAR EDWE 051050Z 03011KT 5000 -DZ BKN006 OVC008 05/04 Q1020
11:20
I
5 °C 5 km 800 ft 030° 030° 13 kt METAR EDWE 051020Z 03013KT 5000 -DZ BKN008 BKN010 OVC012 05/04 Q1020
10:50
I
5 °C 10 km+ 800 ft 040° 040° 12 kt METAR EDWE 050950Z 04012KT 9999 -DZ BKN008 OVC011 05/04 Q1020
10:20
I
5 °C 6 km 800 ft 040° 040° 11 kt METAR EDWE 050920Z 04011KT 6000 -DZ BKN008 OVC009 05/04 Q1020
09:50
I
5 °C 9 km 700 ft 040° 040° 12 kt METAR EDWE 050850Z 04012KT 9000 BKN007 OVC008 05/04 Q1020 REDZ
09:20
I
5 °C 10 km+ 800 ft 040° 040° 13 kt METAR EDWE 050820Z 04013KT 9999 -DZ BKN008 OVC009 05/04 Q1020
08:50
I
5 °C 8 km 800 ft 040° 040° 15 kt METAR EDWE 050750Z 04015KT 8000 -DZ BKN008 OVC009 05/04 Q1020
08:20
I
5 °C 9 km 700 ft 040° 040° 14 kt METAR EDWE 050720Z 04014KT 9000 -DZ BKN007 OVC008 05/04 Q1020
07:50
I
5 °C 9 km 600 ft 040° 040° 14 kt METAR EDWE 050650Z 04014KT 9000 -DZ BKN006 OVC008 05/04 Q1020
07:20
I
5 °C 7 km 500 ft 040° 040° 14 kt METAR EDWE 050620Z 04014KT 7000 -DZ BKN005 OVC006 05/04 Q1020
06:50
I
5 °C 8 km 600 ft 040° 040° 13 kt METAR EDWE 050550Z 04013KT 8000 -DZ BKN006 OVC008 05/04 Q1020
06:20
I
5 °C 7 km 700 ft 040° 040° 13 kt METAR EDWE 050520Z 04013KT 7000 -DZ OVC007 05/04 Q1020
05:50
I
5 °C 5 km 600 ft 050° 050° 12 kt METAR EDWE 050450Z AUTO 05012KT 5000 // OVC006/// 05/04 Q1020
05:20
I
5 °C 5 km 700 ft 050° 050° 13 kt METAR EDWE 050420Z AUTO 05013KT 5000 // OVC007/// 05/04 Q1020
04:50
I
5 °C 7 km 600 ft 050° 050° 13 kt METAR EDWE 050350Z AUTO 05013KT 7000 // OVC006/// 05/04 Q1019
04:20
I
5 °C 3,9 km 600 ft 050° 050° 13 kt METAR EDWE 050320Z AUTO 05013KT 3900 // OVC006/// 05/04 Q1019
03:50
I
5 °C 10 km+ 800 ft 050° 050° 13 kt METAR EDWE 050250Z AUTO 05013KT 9999 // OVC008/// 05/04 Q1020
03:20
I
5 °C 10 km+ 900 ft 050° 050° 12 kt METAR EDWE 050220Z AUTO 05012KT 9999 // OVC009/// 05/04 Q1020
02:50
M
5 °C 10 km+ 1.000 ft 050° 050° 14 kt METAR EDWE 050150Z AUTO 05014KT 9999 // OVC010/// 05/04 Q1020
02:20
M
5 °C 8 km 1.000 ft 050° 050° 13 kt METAR EDWE 050120Z AUTO 05013KT 8000 // BKN010/// OVC018/// 05/04 Q1020
01:50
M
6 °C 10 km+ 1.100 ft 050° 050° 13 kt METAR EDWE 050050Z AUTO 05013KT 9999 // BKN011/// OVC033/// 06/04 Q1020
01:20
M
5 °C 10 km+ 1.000 ft 050° 050° 12 kt METAR EDWE 050020Z AUTO 05012KT 9999 // BKN010/// OVC015/// 05/04 Q1020
00:50
M
5 °C 10 km+ 1.100 ft 050° 050° 10 kt METAR EDWE 042350Z AUTO 05010KT 9999 // OVC011/// 05/03 Q1020
00:20
M
5 °C 10 km+ 1.400 ft 050° 050° 10 kt METAR EDWE 042320Z AUTO 05010KT 9999 // OVC014/// 05/03 Q1020

4 december 2022

Tijd Code Weer Temp. Zicht Plafond Wind METAR/SPECI
23:50
M
5 °C 10 km+ 2.500 ft 050° 050° 10 kt METAR EDWE 042250Z AUTO 05010KT 9999 // BKN025/// OVC035/// 05/02 Q1020
23:20
V
5 °C 10 km+ 3.600 ft 050° 050° 9 kt METAR EDWE 042220Z AUTO 05009KT 9999 // FEW031/// OVC036/// 05/02 Q1020
22:50
V
5 °C 10 km+ 3.500 ft 050° 050° 12 kt METAR EDWE 042150Z AUTO 05012KT 9999 // FEW013/// OVC035/// 05/02 Q1020
22:20
M
5 °C 10 km+ 1.300 ft 060° 060° 11 kt METAR EDWE 042120Z AUTO 06011KT 9999 // OVC013/// 05/03 Q1020
21:50
M
5 °C 10 km+ 1.200 ft 060° 060° 10 kt METAR EDWE 042050Z AUTO 06010KT 9999 // OVC012/// 05/03 Q1021
21:20
M
5 °C 10 km+ 1.200 ft 060° 060° 12 kt METAR EDWE 042020Z AUTO 06012KT 9999 // OVC012/// 05/03 Q1021
20:50
M
5 °C 10 km+ 1.300 ft 060° 060° 10 kt METAR EDWE 041950Z AUTO 06010KT 9999 // OVC013/// 05/02 Q1021
20:20
M
4 °C 10 km+ 1.400 ft 060° 060° 11 kt METAR EDWE 041920Z AUTO 06011KT 9999 // OVC014/// 04/02 Q1021
19:50
M
4 °C 10 km+ 1.500 ft 060° 060° 11 kt METAR EDWE 041850Z AUTO 06011KT 9999 // OVC015/// 04/02 Q1020
19:20
M
4 °C 10 km+ 1.500 ft 060° 060° 11 kt SPECI EDWE 041820Z AUTO 06011KT 9999 // OVC015/// 04/02 Q1020
18:50
M
4 °C 10 km+ 1.600 ft 060° 060° 11 kt METAR EDWE 041750Z AUTO 06011KT 9999 // OVC016/// 04/01 Q1020
18:20
M
4 °C 10 km+ 1.800 ft 050° 050° 12 kt METAR EDWE 041720Z AUTO 05012KT 9999 // OVC018/// 04/01 Q1020
17:50
V
4 °C 10 km+ 3.000 ft 050° 050° 11 kt METAR EDWE 041650Z AUTO 05011KT 9999 // FEW019/// OVC030/// 04/01 Q1020
08:20
M
0 °C 9 km 2.000 ft 060° 060° 10 kt METAR EDWE 040720Z AUTO 06010KT 9000 // OVC020/// 00/M02 Q1021
07:50
M
0 °C 7 km 2.100 ft 060° 060° 9 kt METAR EDWE 040650Z AUTO 06009KT 7000 // OVC021/// 00/M02 Q1021
07:20
M
0 °C 7 km 2.100 ft 060° 060° 9 kt METAR EDWE 040620Z AUTO 06009KT 7000 // OVC021/// 00/M02 Q1021
06:50
M
0 °C 8 km 2.100 ft 070° 070° 9 kt METAR EDWE 040550Z AUTO 07009KT 8000 // OVC021/// M00/M02 Q1021
06:20
M
0 °C 8 km 2.100 ft 070° 070° 10 kt METAR EDWE 040520Z AUTO 07010KT 8000 // OVC021/// M00/M02 Q1021
05:50
M
0 °C 8 km 2.300 ft 070° 070° 8 kt METAR EDWE 040450Z AUTO 07008KT 8000 // OVC023/// M00/M03 Q1021
05:20
M
0 °C 9 km 2.500 ft 070° 070° 9 kt METAR EDWE 040420Z AUTO 07009KT 9000 // OVC025/// M00/M03 Q1021
04:50
M
0 °C 9 km 2.600 ft 080° 080° 9 kt METAR EDWE 040350Z AUTO 08009KT 9000 // OVC026/// M00/M03 Q1021
04:20
M
0 °C 10 km+ 2.700 ft 080° 080° 7 kt METAR EDWE 040320Z AUTO 08007KT 9999 // FEW015/// OVC027/// M00/M03 Q1021
03:50
M
0 °C 10 km+ 2.800 ft 080° 080° 8 kt METAR EDWE 040250Z AUTO 08008KT 9999 // OVC028/// M00/M03 Q1021
03:20
V
0 °C 10 km+ 3.100 ft 080° 080° 8 kt METAR EDWE 040220Z AUTO 08008KT 9999 // OVC031/// M00/M03 Q1021
02:50
V
0 °C 10 km+ 3.400 ft 080° 080° 8 kt METAR EDWE 040150Z AUTO 08008KT 9999 // BKN034/// M00/M03 Q1021
02:20
V
-1 °C 10 km+ - 080° 080° 6 kt METAR EDWE 040120Z AUTO 08006KT 9999 // FEW017/// M01/M03 Q1021
01:50
M
0 °C 10 km+ 1.800 ft 080° 080° 8 kt METAR EDWE 040050Z AUTO 08008KT 9999 // BKN018/// M00/M03 Q1021
01:20
M
1 °C 10 km+ 1.500 ft 080° 080° 8 kt METAR EDWE 040020Z AUTO 08008KT 9999 // OVC015/// 01/M02 Q1021
00:50
M
1 °C 10 km+ 1.600 ft 090° 090° 6 kt METAR EDWE 032350Z AUTO 09006KT 9999 // OVC016/// 01/M02 Q1021
00:20
M
1 °C 10 km+ 1.700 ft 090° 090° 7 kt METAR EDWE 032320Z AUTO 09007KT 9999 // OVC017/// 01/M02 Q1021

3 december 2022

Tijd Code Weer Temp. Zicht Plafond Wind METAR/SPECI
23:50
M
1 °C 10 km+ 1.600 ft 080° 080° 5 kt METAR EDWE 032250Z AUTO 08005KT 9999 // BKN016/// OVC021/// 01/M01 Q1021
23:20
M
1 °C 10 km+ 1.300 ft 070° 070° 7 kt METAR EDWE 032220Z AUTO 07007KT 9999 // OVC013/// 01/M01 Q1021
22:50
M
1 °C 10 km+ 1.300 ft 060° 060° 6 kt METAR EDWE 032150Z AUTO 06006KT 9999 // OVC013/// 01/M01 Q1021
22:20
M
1 °C 10 km+ 1.600 ft 070° 070° 7 kt METAR EDWE 032120Z AUTO 07007KT 9999 // OVC016/// 01/M01 Q1021
21:50
M
0 °C 10 km+ 1.600 ft 070° 070° 6 kt METAR EDWE 032050Z AUTO 07006KT 9999 // BKN016/// BKN022/// 00/M02 Q1022
21:20
V
0 °C 10 km+ - 070° 070° 7 kt METAR EDWE 032020Z AUTO 07007KT 9999 // SCT022/// M00/M02 Q1022
20:50
M
1 °C 10 km+ 2.300 ft 060° 060° 8 kt METAR EDWE 031950Z AUTO 06008KT 9999 // OVC023/// 01/M01 Q1022
20:20
M
1 °C 10 km+ 1.900 ft 070° 070° 8 kt METAR EDWE 031920Z AUTO 07008KT 9999 // OVC019/// 01/M01 Q1022
19:50
M
1 °C 10 km+ 1.800 ft 070° 070° 10 kt METAR EDWE 031850Z AUTO 07010KT 9999 // OVC018/// 01/M01 Q1022
19:20
M
1 °C 10 km+ 1.900 ft 070° 070° 7 kt METAR EDWE 031820Z AUTO 07007KT 9999 // BKN019/// BKN062/// 01/M01 Q1022
18:50
V
1 °C 10 km+ 6.200 ft 060° 060° 7 kt METAR EDWE 031750Z AUTO 06007KT 9999 // BKN062/// 01/M01 Q1022
18:20
V
1 °C 10 km+ - 060° 060° 8 kt METAR EDWE 031720Z AUTO 06008KT 9999 // FEW026/// 01/M01 Q1022
17:50
M
1 °C 10 km+ 2.800 ft 070° 070° 7 kt METAR EDWE 031650Z AUTO 07007KT 9999 // BKN028/// BKN040/// 01/M01 Q1022
17:20
V
2 °C 10 km+ 3.000 ft 060° 060° 7 kt METAR EDWE 031620Z AUTO 06007KT 9999 // OVC030/// 02/M01 Q1022

Wij en derden volgen je internetgedrag op onze website met cookies. Als je doorgaat, gaan we ervan uit dat je akkoord gaat met onze cookiebeleid.